createdAt,value
2023-05-18T00:01:34.227Z,5.80
2023-05-18T00:04:02.334Z,4.88
2023-05-18T00:06:29.669Z,5.20
2023-05-18T00:08:56.907Z,5.68
2023-05-18T00:11:24.208Z,6.35
2023-05-18T00:13:51.439Z,6.05
2023-05-18T00:16:18.640Z,5.88
2023-05-18T00:18:46.416Z,5.72
2023-05-18T00:21:16.364Z,6.22
2023-05-18T00:23:49.696Z,5.90
2023-05-18T00:26:17.151Z,5.32
2023-05-18T00:28:46.096Z,5.93
2023-05-18T00:31:13.324Z,6.75
2023-05-18T00:33:41.358Z,5.47
2023-05-18T00:36:08.556Z,5.88
2023-05-18T00:38:35.714Z,5.18
2023-05-18T00:41:03.074Z,5.60
2023-05-18T00:43:30.230Z,5.95
2023-05-18T00:45:57.406Z,5.95
2023-05-18T00:48:24.584Z,5.57
2023-05-18T00:50:51.792Z,6.35
2023-05-18T00:53:18.951Z,5.43
2023-05-18T00:55:46.030Z,5.28
2023-05-18T00:58:14.341Z,6.35
2023-05-18T01:00:41.652Z,6.25
2023-05-18T01:03:11.375Z,5.50
2023-05-18T01:05:38.606Z,6.88
2023-05-18T01:08:05.820Z,5.22
2023-05-18T01:10:37.034Z,6.63
2023-05-18T01:13:15.813Z,5.88
2023-05-18T01:15:44.803Z,4.88
2023-05-18T01:18:22.047Z,5.53
2023-05-18T01:20:57.696Z,6.15
2023-05-18T01:23:52.578Z,5.10
2023-05-18T01:26:31.948Z,5.53
2023-05-18T01:29:07.221Z,5.20
2023-05-18T01:31:34.948Z,5.20
2023-05-18T01:34:03.277Z,5.05
2023-05-18T01:36:31.765Z,5.22
2023-05-18T01:39:01.991Z,4.63
2023-05-18T01:41:31.628Z,5.20
2023-05-18T01:44:04.789Z,5.55
2023-05-18T01:46:57.605Z,5.05
2023-05-18T01:49:31.991Z,5.20
2023-05-18T01:54:32.396Z,5.15
2023-05-18T01:57:01.176Z,5.00
2023-05-18T01:59:29.081Z,5.95
2023-05-18T02:02:00.432Z,5.85
2023-05-18T02:04:28.425Z,5.15
2023-05-18T02:06:56.235Z,5.18
2023-05-18T02:09:23.893Z,4.28
2023-05-18T02:11:51.817Z,4.07
2023-05-18T02:14:19.020Z,5.90
2023-05-18T02:16:47.626Z,5.95
2023-05-18T02:19:15.333Z,5.40
2023-05-18T02:21:43.752Z,6.10
2023-05-18T02:24:12.679Z,5.07
2023-05-18T02:26:41.771Z,4.95
2023-05-18T02:29:11.939Z,5.38
2023-05-18T02:31:39.343Z,5.03
2023-05-18T02:34:07.141Z,4.63
2023-05-18T02:36:40.576Z,5.13
2023-05-18T02:41:36.521Z,4.70
2023-05-18T02:44:05.806Z,5.35
2023-05-18T02:46:33.338Z,5.07
2023-05-18T02:49:00.818Z,5.20
2023-05-18T02:51:30.492Z,4.88
2023-05-18T02:53:58.204Z,5.55
2023-05-18T02:56:25.939Z,5.57
2023-05-18T02:59:10.049Z,5.15
2023-05-18T03:01:41.324Z,5.13
2023-05-18T03:04:09.126Z,5.20
2023-05-18T03:06:40.569Z,5.35
2023-05-18T03:09:08.686Z,5.30
2023-05-18T03:11:40.911Z,4.80
2023-05-18T03:14:09.266Z,6.30
2023-05-18T03:16:39.074Z,4.93
2023-05-18T03:19:11.116Z,5.10
2023-05-18T03:21:41.747Z,5.32
2023-05-18T03:24:09.685Z,5.45
2023-05-18T03:26:42.002Z,5.70
2023-05-18T03:29:09.470Z,6.15
2023-05-18T03:31:36.557Z,4.78
2023-05-18T03:34:03.902Z,5.70
2023-05-18T03:36:31.053Z,6.05
2023-05-18T03:38:58.344Z,5.97
2023-05-18T03:41:26.767Z,4.93
2023-05-18T03:43:54.959Z,4.90
2023-05-18T03:46:23.179Z,5.70
2023-05-18T03:48:50.974Z,5.75
2023-05-18T03:51:21.945Z,6.55
2023-05-18T03:53:49.103Z,5.25
2023-05-18T03:56:16.224Z,5.97
2023-05-18T03:58:44.557Z,5.35
2023-05-18T04:01:11.959Z,5.35
2023-05-18T04:03:40.909Z,5.00
2023-05-18T04:06:10.408Z,5.13
2023-05-18T04:08:38.347Z,5.75
2023-05-18T04:11:07.031Z,5.30
2023-05-18T04:13:35.245Z,5.80
2023-05-18T04:16:03.800Z,5.75
2023-05-18T04:18:32.393Z,5.18
2023-05-18T04:21:00.527Z,6.30
2023-05-18T04:23:28.887Z,5.72
2023-05-18T04:25:56.719Z,5.30
2023-05-18T04:28:24.104Z,5.20
2023-05-18T04:30:52.020Z,5.50
2023-05-18T04:33:20.697Z,4.82
2023-05-18T04:35:48.551Z,4.97
2023-05-18T04:38:16.843Z,5.75
2023-05-18T04:40:44.834Z,4.70
2023-05-18T04:43:13.624Z,5.82
2023-05-18T04:45:40.744Z,5.38
2023-05-18T04:48:08.268Z,4.63
2023-05-18T04:50:37.350Z,5.60
2023-05-18T04:53:07.788Z,4.85
2023-05-18T04:55:35.699Z,4.75
2023-05-18T04:58:10.611Z,4.18
2023-05-18T05:00:38.676Z,4.70
2023-05-18T05:03:06.476Z,4.45
2023-05-18T05:05:34.819Z,3.47
2023-05-18T05:08:04.850Z,4.32
2023-05-18T05:10:31.916Z,4.85
2023-05-18T05:12:59.872Z,5.15
2023-05-18T05:15:27.381Z,4.32
2023-05-18T05:17:54.836Z,4.45
2023-05-18T05:20:22.700Z,4.05
2023-05-18T05:22:49.847Z,4.07
2023-05-18T05:25:22.513Z,4.35
2023-05-18T05:27:51.140Z,4.38
2023-05-18T05:30:20.860Z,4.45
2023-05-18T05:32:48.158Z,3.88
2023-05-18T05:35:15.570Z,4.75
2023-05-18T05:37:42.979Z,4.13
2023-05-18T05:40:10.926Z,3.85
2023-05-18T05:42:42.666Z,4.07
2023-05-18T05:45:10.332Z,4.10
2023-05-18T05:48:03.401Z,4.40
2023-05-18T05:50:32.514Z,2.92
2023-05-18T05:53:01.859Z,3.72
2023-05-18T05:55:33.131Z,4.43
2023-05-18T05:58:00.638Z,3.22
2023-05-18T06:00:28.912Z,4.28
2023-05-18T06:03:02.093Z,4.40
2023-05-18T06:05:42.455Z,3.10
2023-05-18T06:08:12.385Z,3.67
2023-05-18T06:10:41.384Z,3.72
2023-05-18T06:13:09.265Z,3.72
2023-05-18T06:15:43.934Z,3.45
2023-05-18T06:18:13.445Z,3.30
2023-05-18T06:20:41.005Z,3.78
2023-05-18T06:23:08.089Z,3.92
2023-05-18T06:25:53.439Z,4.05
2023-05-18T06:28:44.044Z,3.88
2023-05-18T06:31:33.609Z,3.90
2023-05-18T06:34:12.694Z,3.65
2023-05-18T06:36:40.816Z,3.60
2023-05-18T06:39:07.909Z,4.05
2023-05-18T06:41:35.388Z,3.90
2023-05-18T06:44:03.214Z,3.50
2023-05-18T06:46:35.869Z,3.88
2023-05-18T06:49:08.569Z,4.07
2023-05-18T06:51:35.595Z,4.07
2023-05-18T06:54:02.756Z,3.83
2023-05-18T06:56:30.021Z,5.07
2023-05-18T06:58:58.330Z,3.95
2023-05-18T07:01:27.458Z,4.40
2023-05-18T07:06:43.054Z,4.00
2023-05-18T07:09:10.184Z,3.80
2023-05-18T07:15:36.779Z,2.55
2023-05-18T07:18:04.399Z,3.55
2023-05-18T07:20:31.611Z,3.17
2023-05-18T07:22:58.847Z,3.17
2023-05-18T07:25:26.360Z,2.63
2023-05-18T07:27:54.850Z,3.53
2023-05-18T07:30:22.856Z,3.92
2023-05-18T07:32:53.867Z,2.92
2023-05-18T07:35:22.132Z,3.28
2023-05-18T07:37:50.409Z,3.03
2023-05-18T07:40:17.625Z,3.83
2023-05-18T07:42:44.910Z,3.65
2023-05-18T07:45:12.913Z,3.60
2023-05-18T07:47:40.356Z,2.60
2023-05-18T07:50:08.222Z,3.72
2023-05-18T07:52:35.369Z,4.20
2023-05-18T07:55:02.993Z,3.50
2023-05-18T07:57:31.709Z,3.45
2023-05-18T07:59:58.746Z,2.25
2023-05-18T08:02:26.115Z,3.03
2023-05-18T08:04:56.805Z,3.45
2023-05-18T08:07:26.626Z,2.97
2023-05-18T08:09:53.680Z,3.20
2023-05-18T08:12:21.128Z,2.92
2023-05-18T08:14:50.624Z,2.47
2023-05-18T08:17:19.781Z,2.60
2023-05-18T08:19:47.976Z,3.25
2023-05-18T08:22:15.856Z,2.65
2023-05-18T08:24:43.177Z,2.50
2023-05-18T08:27:11.470Z,2.58
2023-05-18T08:29:38.733Z,2.63
2023-05-18T08:32:07.569Z,2.85
2023-05-18T08:34:35.273Z,3.20
2023-05-18T08:37:02.870Z,2.95
2023-05-18T08:39:32.187Z,2.65
2023-05-18T08:42:16.859Z,3.00
2023-05-18T08:44:46.660Z,3.22
2023-05-18T08:47:15.457Z,3.17
2023-05-18T08:49:42.977Z,3.42
2023-05-18T08:52:18.148Z,3.50
2023-05-18T08:54:47.278Z,3.28
2023-05-18T08:57:16.905Z,2.97
2023-05-18T08:59:45.149Z,3.45
2023-05-18T09:02:13.739Z,2.92
2023-05-18T09:04:42.686Z,2.65
2023-05-18T09:07:11.144Z,3.38
2023-05-18T09:09:40.880Z,3.20
2023-05-18T09:12:09.865Z,3.80
2023-05-18T09:14:37.122Z,3.45
2023-05-18T09:17:04.496Z,2.95
2023-05-18T09:19:31.659Z,3.03
2023-05-18T09:21:58.711Z,2.90
2023-05-18T09:24:26.703Z,3.35
2023-05-18T09:26:54.347Z,3.35
2023-05-18T09:29:22.676Z,3.60
2023-05-18T09:31:50.308Z,3.63
2023-05-18T09:34:19.526Z,3.38
2023-05-18T09:36:53.123Z,3.55
2023-05-18T09:39:20.278Z,3.95
2023-05-18T09:42:05.167Z,3.58
2023-05-18T09:44:35.813Z,3.55
2023-05-18T09:47:12.219Z,3.95
2023-05-18T09:49:41.664Z,3.28
2023-05-18T09:52:09.466Z,4.40
2023-05-18T09:54:40.133Z,3.80
2023-05-18T09:57:10.712Z,3.00
2023-05-18T09:59:39.061Z,3.00
2023-05-18T10:02:08.588Z,3.25
2023-05-18T10:04:41.384Z,3.83
2023-05-18T10:07:16.886Z,3.40
2023-05-18T10:09:45.973Z,4.10
2023-05-18T10:12:15.050Z,3.55
2023-05-18T10:14:43.987Z,3.70
2023-05-18T10:17:15.699Z,3.17
2023-05-18T10:19:44.810Z,3.95
2023-05-18T10:22:15.875Z,3.53
2023-05-18T10:24:47.091Z,3.53
2023-05-18T10:27:14.932Z,3.50
2023-05-18T10:29:43.026Z,3.45
2023-05-18T10:32:12.980Z,3.85
2023-05-18T10:34:43.010Z,2.88
2023-05-18T10:37:12.125Z,2.40
2023-05-18T10:39:45.825Z,2.45
2023-05-18T10:42:16.289Z,3.05
2023-05-18T10:44:44.972Z,3.47
2023-05-18T10:47:13.909Z,2.72
2023-05-18T10:49:43.422Z,3.22
2023-05-18T10:52:12.934Z,3.35
2023-05-18T10:54:41.991Z,4.25
2023-05-18T10:57:13.879Z,2.90
2023-05-18T10:59:48.227Z,3.58
2023-05-18T11:02:21.259Z,3.58
2023-05-18T11:04:50.162Z,3.75
2023-05-18T11:07:18.239Z,3.88
2023-05-18T11:09:45.164Z,3.38
2023-05-18T11:12:20.421Z,2.80
2023-05-18T11:14:50.485Z,3.35
2023-05-18T11:17:29.728Z,3.30
2023-05-18T11:20:06.471Z,2.85
2023-05-18T11:22:45.076Z,3.42
2023-05-18T11:25:27.356Z,2.80
2023-05-18T11:27:57.851Z,2.90
2023-05-18T11:30:40.745Z,3.40
2023-05-18T11:36:27.111Z,2.88
2023-05-18T11:39:04.788Z,3.85
2023-05-18T11:41:35.816Z,2.72
2023-05-18T11:44:12.028Z,2.83
2023-05-18T11:46:53.684Z,3.70
2023-05-18T11:49:23.744Z,2.72
2023-05-18T11:52:13.498Z,3.13
2023-05-18T11:54:52.378Z,2.92
2023-05-18T11:57:43.042Z,3.25
2023-05-18T12:00:12.202Z,3.38
2023-05-18T12:02:43.963Z,3.13
2023-05-18T12:05:11.757Z,2.88
2023-05-18T12:07:42.765Z,3.28
2023-05-18T12:10:16.324Z,2.97
2023-05-18T12:12:44.048Z,2.95
2023-05-18T12:15:16.586Z,3.20
2023-05-18T12:17:46.923Z,2.75
2023-05-18T12:20:15.140Z,3.60
2023-05-18T12:22:44.420Z,3.72
2023-05-18T12:25:12.066Z,3.00
2023-05-18T12:27:48.803Z,3.10
2023-05-18T12:30:15.874Z,4.18
2023-05-18T12:32:47.701Z,3.33
2023-05-18T12:35:15.186Z,3.22
2023-05-18T12:37:45.169Z,3.65
2023-05-18T12:40:17.055Z,3.67
2023-05-18T12:43:01.250Z,3.10
2023-05-18T12:45:32.986Z,2.83
2023-05-18T12:48:11.555Z,3.00
2023-05-18T12:50:47.396Z,2.97
2023-05-18T12:53:14.715Z,3.45
2023-05-18T12:55:41.704Z,2.90
2023-05-18T12:58:18.501Z,3.58
2023-05-18T13:00:50.071Z,3.17
2023-05-18T13:03:20.361Z,3.40
2023-05-18T13:06:07.271Z,3.47
2023-05-18T13:08:35.321Z,3.35
2023-05-18T13:13:38.928Z,3.08
2023-05-18T13:16:15.676Z,3.13
2023-05-18T13:18:46.999Z,2.67
2023-05-18T13:21:14.038Z,2.47
2023-05-18T13:23:40.903Z,3.85
2023-05-18T13:26:08.005Z,3.53
2023-05-18T13:28:35.961Z,3.20
2023-05-18T13:31:03.098Z,3.25
2023-05-18T13:33:30.055Z,2.92
2023-05-18T13:35:57.202Z,3.83
2023-05-18T13:38:24.244Z,3.67
2023-05-18T13:40:51.355Z,2.75
2023-05-18T13:43:18.302Z,3.50
2023-05-18T13:45:45.400Z,2.55
2023-05-18T13:48:12.707Z,2.80
2023-05-18T13:50:40.078Z,2.95
2023-05-18T13:53:07.274Z,3.10
2023-05-18T13:55:38.073Z,3.47
2023-05-18T13:58:05.491Z,3.28
2023-05-18T14:00:36.546Z,3.03
2023-05-18T14:03:04.334Z,2.92
2023-05-18T14:05:31.407Z,3.58
2023-05-18T14:07:58.630Z,3.55
2023-05-18T14:10:27.030Z,2.90
2023-05-18T14:12:56.754Z,3.65
2023-05-18T14:15:23.968Z,3.05
2023-05-18T14:17:51.265Z,3.15
2023-05-18T14:20:19.825Z,2.45
2023-05-18T14:22:49.628Z,3.40
2023-05-18T14:25:17.192Z,3.30
2023-05-18T14:27:44.493Z,3.40
2023-05-18T14:30:11.884Z,2.97
2023-05-18T14:32:38.942Z,2.50
2023-05-18T14:35:06.634Z,2.90
2023-05-18T14:37:33.646Z,3.78
2023-05-18T14:40:00.693Z,3.03
2023-05-18T14:42:27.713Z,3.67
2023-05-18T14:44:55.172Z,3.58
2023-05-18T14:47:22.677Z,3.55
2023-05-18T14:49:49.832Z,3.08
2023-05-18T14:52:16.981Z,3.85
2023-05-18T14:54:43.999Z,3.47
2023-05-18T14:57:11.431Z,3.30
2023-05-18T14:59:38.698Z,3.25
2023-05-18T15:02:07.715Z,4.28
2023-05-18T15:04:36.192Z,4.07
2023-05-18T15:07:03.400Z,4.03
2023-05-18T15:09:30.413Z,3.65
2023-05-18T15:11:57.471Z,4.30
2023-05-18T15:14:24.522Z,3.83
2023-05-18T15:16:51.868Z,4.00
2023-05-18T15:19:19.420Z,4.22
2023-05-18T15:21:46.507Z,4.13
2023-05-18T15:24:13.583Z,4.05
2023-05-18T15:26:40.980Z,4.45
2023-05-18T15:29:08.057Z,4.20
2023-05-18T15:31:37.901Z,5.78
2023-05-18T15:34:04.955Z,5.18
2023-05-18T15:36:32.426Z,5.25
2023-05-18T15:38:59.606Z,4.57
2023-05-18T15:41:33.029Z,4.90
2023-05-18T15:44:01.911Z,4.97
2023-05-18T15:46:32.186Z,4.53
2023-05-18T15:48:59.289Z,5.32
2023-05-18T15:51:26.401Z,5.25
2023-05-18T15:53:53.789Z,4.15
2023-05-18T15:56:22.049Z,4.70
2023-05-18T15:58:49.141Z,4.78
2023-05-18T16:01:16.179Z,4.28
2023-05-18T16:03:46.231Z,4.93
2023-05-18T16:06:13.461Z,4.25
2023-05-18T16:08:40.503Z,4.18
2023-05-18T16:11:10.069Z,4.70
2023-05-18T16:13:37.017Z,4.50
2023-05-18T16:16:04.208Z,4.95
2023-05-18T16:18:31.551Z,4.70
2023-05-18T16:20:58.947Z,3.90
2023-05-18T16:23:25.981Z,4.03
2023-05-18T16:25:53.009Z,3.50
2023-05-18T16:28:20.114Z,3.85
2023-05-18T16:30:47.129Z,4.03
2023-05-18T16:33:14.209Z,4.82
2023-05-18T16:35:41.460Z,3.92
2023-05-18T16:38:13.460Z,4.47
2023-05-18T16:40:40.482Z,4.22
2023-05-18T16:43:07.739Z,4.90
2023-05-18T16:45:37.456Z,3.63
2023-05-18T16:48:04.633Z,4.38
2023-05-18T16:50:31.992Z,4.05
2023-05-18T16:53:02.517Z,4.13
2023-05-18T16:55:29.431Z,3.78
2023-05-18T16:57:56.422Z,4.03
2023-05-18T17:00:23.709Z,5.03
2023-05-18T17:02:54.006Z,3.72
2023-05-18T17:05:24.787Z,4.53
2023-05-18T17:07:55.544Z,4.50
2023-05-18T17:10:25.439Z,4.55
2023-05-18T17:12:52.504Z,4.25
2023-05-18T17:15:19.645Z,4.57
2023-05-18T17:17:55.127Z,4.57
2023-05-18T17:20:23.092Z,5.53
2023-05-18T17:22:50.293Z,4.68
2023-05-18T17:25:17.418Z,4.93
2023-05-18T17:27:44.395Z,4.38
2023-05-18T17:30:11.884Z,5.18
2023-05-18T17:32:39.777Z,4.70
2023-05-18T17:35:13.302Z,5.15
2023-05-18T17:37:41.479Z,4.68
2023-05-18T17:40:09.997Z,4.95
2023-05-18T17:42:37.020Z,5.72
2023-05-18T17:45:04.377Z,5.50
2023-05-18T17:47:31.343Z,5.55
2023-05-18T17:49:58.322Z,6.10
2023-05-18T17:52:25.360Z,5.00
2023-05-18T17:54:57.290Z,5.45
2023-05-18T17:57:24.384Z,5.50
2023-05-18T17:59:51.573Z,5.65
2023-05-18T18:02:18.648Z,5.32
2023-05-18T18:04:45.927Z,5.32
2023-05-18T18:07:13.039Z,5.47
2023-05-18T18:09:41.092Z,4.75
2023-05-18T18:12:08.720Z,5.90
2023-05-18T18:14:35.846Z,5.82
2023-05-18T18:17:03.578Z,5.82
2023-05-18T18:19:31.419Z,6.13
2023-05-18T18:21:58.812Z,5.88
2023-05-18T18:24:25.953Z,6.47
2023-05-18T18:26:53.284Z,6.10
2023-05-18T18:29:20.445Z,7.03
2023-05-18T18:31:47.906Z,6.20
2023-05-18T18:34:15.252Z,6.40
2023-05-18T18:36:44.500Z,5.80
2023-05-18T18:39:11.620Z,6.40
2023-05-18T18:41:38.724Z,5.82
2023-05-18T18:44:05.928Z,6.72
2023-05-18T18:46:33.469Z,6.13
2023-05-18T18:49:00.883Z,8.27
2023-05-18T18:51:28.131Z,6.75
2023-05-18T18:53:55.201Z,6.07
2023-05-18T18:56:24.261Z,6.13
2023-05-18T18:58:51.534Z,4.93
2023-05-18T19:01:18.863Z,4.50
2023-05-18T19:03:46.127Z,5.10
2023-05-18T19:06:17.585Z,3.40
2023-05-18T19:08:44.783Z,3.70
2023-05-18T19:11:12.006Z,4.40
2023-05-18T19:13:39.030Z,3.70
2023-05-18T19:16:06.613Z,4.28
2023-05-18T19:18:33.910Z,3.03
2023-05-18T19:21:01.620Z,3.88
2023-05-18T19:23:29.098Z,3.80
2023-05-18T19:25:56.474Z,4.68
2023-05-18T19:28:23.695Z,4.28
2023-05-18T19:30:50.778Z,5.53
2023-05-18T19:33:18.219Z,4.28
2023-05-18T19:35:45.862Z,4.22
2023-05-18T19:38:13.088Z,4.55
2023-05-18T19:40:40.132Z,4.07
2023-05-18T19:43:07.508Z,4.43
2023-05-18T19:45:35.036Z,5.03
2023-05-18T19:48:02.557Z,4.55
2023-05-18T19:50:30.053Z,4.45
2023-05-18T19:52:57.125Z,5.22
2023-05-18T19:55:24.466Z,4.18
2023-05-18T19:57:51.468Z,5.63
2023-05-18T20:00:18.641Z,6.25
2023-05-18T20:02:45.778Z,5.85
2023-05-18T20:05:13.162Z,6.28
2023-05-18T20:07:41.142Z,5.57
2023-05-18T20:10:08.472Z,5.50
2023-05-18T20:12:35.915Z,4.95
2023-05-18T20:15:03.713Z,5.20
2023-05-18T20:17:41.239Z,4.80
2023-05-18T20:20:08.946Z,5.60
2023-05-18T20:22:36.174Z,6.63
2023-05-18T20:25:05.627Z,5.60
2023-05-18T20:27:33.208Z,4.97
2023-05-18T20:30:00.840Z,5.47
2023-05-18T20:32:29.083Z,5.22
2023-05-18T20:34:56.349Z,4.63
2023-05-18T20:37:25.378Z,5.50
2023-05-18T20:39:54.383Z,5.72
2023-05-18T20:42:22.432Z,6.18
2023-05-18T20:44:53.077Z,5.43
2023-05-18T20:47:20.942Z,5.15
2023-05-18T20:49:48.763Z,6.32
2023-05-18T20:52:16.784Z,6.22
2023-05-18T20:54:44.277Z,5.97
2023-05-18T20:57:12.034Z,5.47
2023-05-18T20:59:39.196Z,5.90
2023-05-18T21:02:07.156Z,7.90
2023-05-18T21:04:34.557Z,5.72
2023-05-18T21:07:01.833Z,7.15
2023-05-18T21:09:31.402Z,6.50
2023-05-18T21:11:58.824Z,6.35
2023-05-18T21:14:26.161Z,6.07
2023-05-18T21:16:53.469Z,5.70
2023-05-18T21:19:20.991Z,6.28
2023-05-18T21:21:48.375Z,6.68
2023-05-18T21:24:15.682Z,6.00
2023-05-18T21:26:43.070Z,6.88
2023-05-18T21:29:10.086Z,6.97
2023-05-18T21:31:37.411Z,6.13
2023-05-18T21:34:04.508Z,5.95
2023-05-18T21:36:34.420Z,6.53
2023-05-18T21:39:05.980Z,7.43
2023-05-18T21:41:35.371Z,6.60
2023-05-18T21:44:03.431Z,5.95
2023-05-18T21:46:30.771Z,5.97
2023-05-18T21:48:58.066Z,6.07
2023-05-18T21:51:25.598Z,5.68
2023-05-18T21:53:52.802Z,5.80
2023-05-18T21:56:20.199Z,6.97
2023-05-18T21:58:47.340Z,5.35
2023-05-18T22:01:19.703Z,6.10
2023-05-18T22:03:48.138Z,5.93
2023-05-18T22:06:15.788Z,6.07
2023-05-18T22:08:43.224Z,5.80
2023-05-18T22:11:11.899Z,6.60
2023-05-18T22:13:39.433Z,6.72
2023-05-18T22:16:06.733Z,6.15
2023-05-18T22:18:33.912Z,6.88
2023-05-18T22:21:01.202Z,7.35
2023-05-18T22:23:28.244Z,7.03
2023-05-18T22:25:55.272Z,6.43
2023-05-18T22:28:22.538Z,6.43
2023-05-18T22:30:52.971Z,5.50
2023-05-18T22:33:21.427Z,6.35
2023-05-18T22:35:48.553Z,7.70
2023-05-18T22:38:16.917Z,6.20
2023-05-18T22:40:45.608Z,6.10
2023-05-18T22:43:12.901Z,6.80
2023-05-18T22:45:40.099Z,6.43
2023-05-18T22:48:07.292Z,6.45
2023-05-18T22:50:35.170Z,6.00
2023-05-18T22:53:02.656Z,6.93
2023-05-18T22:55:30.126Z,6.25
2023-05-18T22:57:57.473Z,6.82
2023-05-18T23:00:24.604Z,7.22
2023-05-18T23:02:53.073Z,7.32
2023-05-18T23:05:20.612Z,5.20
2023-05-18T23:07:47.795Z,7.10
2023-05-18T23:10:15.070Z,6.15
2023-05-18T23:12:42.195Z,6.07
2023-05-18T23:15:11.949Z,6.40
2023-05-18T23:17:42.825Z,6.90
2023-05-18T23:20:11.623Z,7.03
2023-05-18T23:22:38.924Z,6.00
2023-05-18T23:25:08.798Z,6.32
2023-05-18T23:27:36.839Z,5.70
2023-05-18T23:30:04.554Z,4.78
2023-05-18T23:32:36.060Z,4.90
2023-05-18T23:35:05.049Z,3.65
2023-05-18T23:37:35.302Z,4.03
2023-05-18T23:40:03.004Z,3.50
2023-05-18T23:42:33.743Z,2.95
2023-05-18T23:45:01.469Z,2.78
2023-05-18T23:47:33.987Z,3.05
2023-05-18T23:50:01.368Z,3.30
2023-05-18T23:52:32.844Z,2.75
2023-05-18T23:55:00.599Z,2.70
2023-05-18T23:57:28.112Z,2.38
2023-05-18T23:59:56.015Z,3.05
